Time;durP1;ratioP1;P1;durP2;ratioP2;P2;SDS_P1;SDS_P2;PMS_P1;PMS_P2;Temp;Humidity;BMP_temperature;BMP_pressure;BME280_temperature;BME280_humidity;BME280_pressure;Samples;Min_cycle;Max_cycle;Signal;HPM_P1;HPM_P2
2024/02/27 00:01:49;;;;;;;76.15;71.60;;;7.90;99.90;;;;;;5079186;28;20036;-73
2024/02/27 00:04:15;;;;;;;313.85;287.23;;;7.90;99.90;;;;;;5074638;28;20037;-73
2024/02/27 00:06:43;;;;;;;63.25;59.65;;;7.90;99.90;;;;;;5074245;28;20028;-72
2024/02/27 00:09:13;;;;;;;62.83;59.25;;;7.90;99.90;;;;;;5074450;28;20051;-73
2024/02/27 00:11:39;;;;;;;77.10;72.15;;;7.90;99.90;;;;;;5073855;28;20052;-72
2024/02/27 00:14:05;;;;;;;93.60;88.30;;;7.90;99.90;;;;;;5074558;28;20052;-72
2024/02/27 00:16:31;;;;;;;67.47;63.65;;;7.90;99.90;;;;;;5073732;28;20471;-73
2024/02/27 00:18:57;;;;;;;107.03;101.18;;;7.90;99.90;;;;;;5073587;28;20063;-72
2024/02/27 00:21:23;;;;;;;59.97;56.58;;;7.90;99.90;;;;;;5073556;28;20055;-73
2024/02/27 00:23:49;;;;;;;85.18;80.22;;;7.90;99.90;;;;;;5074557;28;20033;-73
2024/02/27 00:26:15;;;;;;;88.10;83.47;;;7.90;99.90;;;;;;5074732;28;20394;-73
2024/02/27 00:28:41;;;;;;;76.10;71.75;;;7.90;99.90;;;;;;5074265;28;20025;-72
2024/02/27 00:31:08;;;;;;;78.18;73.43;;;7.90;99.90;;;;;;5073331;28;20501;-73
2024/02/27 00:33:34;;;;;;;66.03;62.15;;;8.00;99.90;;;;;;5074114;28;20040;-73
2024/02/27 00:36:01;;;;;;;67.40;63.22;;;7.90;99.90;;;;;;5073721;28;20363;-72
2024/02/27 00:38:27;;;;;;;86.75;81.60;;;7.90;99.90;;;;;;5087999;28;20487;-73
2024/02/27 00:40:53;;;;;;;75.45;70.78;;;7.90;99.90;;;;;;5078922;28;20051;-73
2024/02/27 00:43:19;;;;;;;87.93;82.72;;;8.00;99.90;;;;;;5093723;28;20035;-72
2024/02/27 00:45:45;;;;;;;82.97;78.10;;;8.00;99.90;;;;;;5087721;28;20051;-71
2024/02/27 00:48:11;;;;;;;82.72;77.88;;;8.00;99.90;;;;;;5072826;28;20037;-72
2024/02/27 00:50:39;;;;;;;91.55;86.55;;;8.00;99.90;;;;;;5082468;28;20024;-71
2024/02/27 00:53:07;;;;;;;76.68;72.50;;;8.00;99.90;;;;;;5072682;28;20033;-72
2024/02/27 00:55:33;;;;;;;62.78;58.50;;;8.00;99.90;;;;;;5073014;28;20111;-72
2024/02/27 00:57:59;;;;;;;82.20;77.43;;;8.00;99.90;;;;;;5073593;28;20047;-72
2024/02/27 01:00:25;;;;;;;98.82;93.38;;;8.00;99.90;;;;;;5080424;28;20044;-71
2024/02/27 01:02:51;;;;;;;83.40;78.88;;;8.00;99.90;;;;;;5073217;28;20502;-71
2024/02/27 01:05:18;;;;;;;82.55;77.45;;;8.00;99.90;;;;;;5072810;28;20029;-72
2024/02/27 01:07:44;;;;;;;100.80;95.40;;;8.00;99.90;;;;;;5073388;28;20054;-71
2024/02/27 01:10:10;;;;;;;76.43;71.88;;;8.00;99.90;;;;;;5073179;28;20051;-71
2024/02/27 01:12:37;;;;;;;79.78;75.03;;;7.90;99.90;;;;;;5083795;28;20085;-71
2024/02/27 01:15:04;;;;;;;61.67;58.03;;;8.00;99.90;;;;;;5091436;28;20043;-71
2024/02/27 01:17:30;;;;;;;68.30;64.30;;;8.00;99.90;;;;;;5072312;28;20033;-72
2024/02/27 01:19:56;;;;;;;76.60;72.10;;;8.00;99.90;;;;;;5077994;28;20040;-71
2024/02/27 01:22:29;;;;;;;117.60;111.55;;;8.00;99.90;;;;;;5088028;28;20032;-72
2024/02/27 01:24:56;;;;;;;99.25;93.10;;;8.00;99.90;;;;;;5075595;28;20036;-71
2024/02/27 01:27:23;;;;;;;60.60;56.95;;;8.00;99.90;;;;;;5072346;28;20049;-71
2024/02/27 01:29:50;;;;;;;54.55;51.55;;;8.00;99.90;;;;;;5073094;28;20028;-71
2024/02/27 01:32:16;;;;;;;62.80;59.17;;;8.00;99.90;;;;;;5070823;28;20147;-71
2024/02/27 01:34:42;;;;;;;67.60;63.72;;;8.00;99.90;;;;;;5078287;28;20028;-72
2024/02/27 01:37:08;;;;;;;83.30;78.43;;;8.00;99.90;;;;;;5092471;28;20394;-71
2024/02/27 01:39:34;;;;;;;102.70;97.00;;;8.00;99.90;;;;;;5080138;28;20055;-71
2024/02/27 01:42:00;;;;;;;61.97;58.22;;;8.00;99.90;;;;;;5077286;28;20051;-72
2024/02/27 01:44:26;;;;;;;83.47;79.03;;;8.00;99.90;;;;;;5072678;28;20040;-71
2024/02/27 01:46:53;;;;;;;71.40;67.40;;;8.00;99.90;;;;;;5071984;28;20036;-71
2024/02/27 01:49:19;;;;;;;90.50;85.72;;;7.90;99.90;;;;;;5071998;28;20032;-71
2024/02/27 01:51:46;;;;;;;68.50;64.47;;;8.00;99.90;;;;;;5078010;28;20418;-71
2024/02/27 01:54:15;;;;;;;77.15;72.95;;;7.90;99.90;;;;;;5071569;28;20035;-71
2024/02/27 01:56:41;;;;;;;84.50;79.72;;;7.90;99.90;;;;;;5070817;28;20106;-71
2024/02/27 01:59:07;;;;;;;70.22;65.70;;;8.00;99.90;;;;;;5070370;28;20394;-71
2024/02/27 02:01:33;;;;;;;89.68;84.45;;;8.00;99.90;;;;;;5075883;28;20049;-72
2024/02/27 02:04:00;;;;;;;72.88;68.25;;;8.00;99.90;;;;;;5070955;28;20032;-71
2024/02/27 02:06:26;;;;;;;78.90;74.60;;;8.00;99.90;;;;;;5070847;28;20509;-72
2024/02/27 02:08:53;;;;;;;96.30;90.82;;;8.00;99.90;;;;;;5075585;28;20069;-72
2024/02/27 02:11:19;;;;;;;87.07;81.82;;;8.00;99.90;;;;;;5075994;28;20399;-71
2024/02/27 02:13:45;;;;;;;113.07;106.80;;;8.00;99.90;;;;;;5071162;28;20045;-71
2024/02/27 02:16:12;;;;;;;95.40;89.28;;;8.00;99.90;;;;;;5071449;28;20478;-71
2024/02/27 02:18:38;;;;;;;75.53;71.53;;;8.00;99.90;;;;;;5079024;28;20099;-71
2024/02/27 02:21:04;;;;;;;108.72;102.65;;;8.00;99.90;;;;;;5078155;28;20044;-72
2024/02/27 02:23:30;;;;;;;103.10;97.30;;;7.90;99.90;;;;;;5072148;28;20029;-72
2024/02/27 02:25:56;;;;;;;88.53;83.57;;;8.00;99.90;;;;;;5071916;28;20037;-72
2024/02/27 02:28:22;;;;;;;87.43;82.60;;;7.90;99.90;;;;;;5070870;28;20036;-71
2024/02/27 02:30:48;;;;;;;106.47;100.32;;;7.90;99.90;;;;;;5076280;28;20391;-71
2024/02/27 02:33:14;;;;;;;90.80;85.65;;;7.90;99.90;;;;;;5071911;28;20040;-71
2024/02/27 02:35:46;;;;;;;83.45;78.95;;;7.90;99.90;;;;;;5082370;28;20036;-72
2024/02/27 02:38:12;;;;;;;97.45;91.95;;;7.90;99.90;;;;;;5089391;28;20080;-72
2024/02/27 02:40:38;;;;;;;63.15;59.45;;;7.90;99.90;;;;;;5072810;28;20040;-71
2024/02/27 02:43:05;;;;;;;74.88;70.50;;;7.90;99.90;;;;;;5070833;28;20044;-71
2024/02/27 02:45:31;;;;;;;68.38;64.18;;;7.90;99.90;;;;;;5071130;28;20059;-72
2024/02/27 02:47:57;;;;;;;79.13;74.40;;;7.90;99.90;;;;;;5071704;28;20020;-72
2024/02/27 02:50:23;;;;;;;80.30;75.55;;;7.90;99.90;;;;;;5071795;28;20395;-71
2024/02/27 02:52:49;;;;;;;73.78;69.63;;;7.90;99.90;;;;;;5071965;28;20028;-71
2024/02/27 02:55:16;;;;;;;68.57;64.60;;;7.80;99.90;;;;;;5071646;28;20497;-72
2024/02/27 02:57:42;;;;;;;70.57;66.30;;;7.80;99.90;;;;;;5072482;28;20371;-72
2024/02/27 03:00:08;;;;;;;83.68;78.75;;;7.80;99.90;;;;;;5091019;28;20054;-71
2024/02/27 03:02:34;;;;;;;88.25;83.18;;;7.80;99.90;;;;;;5068734;28;20033;-71
2024/02/27 03:05:00;;;;;;;84.28;79.07;;;7.80;99.90;;;;;;5069921;28;20044;-72
2024/02/27 03:07:27;;;;;;;68.28;64.15;;;7.80;99.90;;;;;;5067486;28;20212;-71
2024/02/27 03:09:53;;;;;;;76.93;72.47;;;7.80;99.90;;;;;;5073105;28;20039;-72
2024/02/27 03:12:19;;;;;;;72.70;68.70;;;7.80;99.90;;;;;;5091921;28;20482;-71
2024/02/27 03:14:45;;;;;;;80.97;76.22;;;7.70;99.90;;;;;;5090539;28;20035;-72
2024/02/27 03:17:13;;;;;;;87.65;82.30;;;7.70;99.90;;;;;;5074223;28;20025;-72
2024/02/27 03:19:40;;;;;;;82.35;77.60;;;7.70;99.90;;;;;;5090032;28;20746;-72
2024/02/27 03:22:06;;;;;;;74.85;70.50;;;7.70;99.90;;;;;;5076510;28;20062;-72
2024/02/27 03:24:32;;;;;;;71.03;67.07;;;7.70;99.90;;;;;;5074377;28;20032;-72
2024/02/27 03:26:59;;;;;;;72.30;67.85;;;7.70;99.90;;;;;;5083797;28;20032;-72
2024/02/27 03:29:26;;;;;;;84.75;80.03;;;7.70;99.90;;;;;;5081699;28;20040;-72
2024/02/27 03:31:52;;;;;;;127.47;121.00;;;7.60;99.90;;;;;;5078727;28;20051;-72
2024/02/27 03:34:19;;;;;;;85.53;80.43;;;7.60;99.90;;;;;;5073897;28;20029;-72
2024/02/27 03:36:45;;;;;;;63.67;59.72;;;7.60;99.90;;;;;;5071247;28;20067;-72
2024/02/27 03:39:13;;;;;;;78.53;74.05;;;7.60;99.90;;;;;;5083813;28;20032;-72
2024/02/27 03:41:39;;;;;;;117.55;110.28;;;7.70;99.90;;;;;;5074592;28;20075;-72
2024/02/27 03:44:06;;;;;;;78.30;73.57;;;7.70;99.90;;;;;;5074660;28;20032;-72
2024/02/27 03:46:32;;;;;;;81.00;76.32;;;7.60;99.90;;;;;;5073835;28;20055;-72
2024/02/27 03:48:58;;;;;;;84.07;78.50;;;7.60;99.90;;;;;;5071152;28;20043;-72
2024/02/27 03:51:24;;;;;;;76.22;71.50;;;7.60;99.90;;;;;;5074647;28;20036;-72
2024/02/27 03:53:50;;;;;;;70.38;65.88;;;7.60;99.90;;;;;;5075060;28;20029;-72
2024/02/27 03:56:16;;;;;;;82.82;77.78;;;7.70;99.90;;;;;;5074131;28;20099;-72
2024/02/27 03:58:42;;;;;;;82.45;77.32;;;7.70;99.90;;;;;;5074944;28;20044;-72
2024/02/27 04:01:08;;;;;;;78.88;73.90;;;7.70;99.90;;;;;;5074255;28;20067;-72
2024/02/27 04:03:34;;;;;;;82.43;78.00;;;7.70;99.90;;;;;;5074798;28;20039;-71
2024/02/27 04:06:00;;;;;;;68.22;63.97;;;7.70;99.90;;;;;;5074296;28;20031;-71
2024/02/27 04:08:26;;;;;;;71.07;66.63;;;7.60;99.90;;;;;;5089497;28;20044;-71
2024/02/27 04:10:52;;;;;;;73.93;69.30;;;7.60;99.90;;;;;;5092300;28;20036;-71
2024/02/27 04:13:19;;;;;;;95.78;90.45;;;7.60;99.90;;;;;;5093565;28;20486;-71
2024/02/27 04:15:46;;;;;;;71.03;66.65;;;7.60;99.90;;;;;;5093772;28;20044;-71
2024/02/27 04:18:12;;;;;;;104.35;98.20;;;7.60;99.90;;;;;;5079162;28;20044;-72
2024/02/27 04:20:38;;;;;;;60.65;57.20;;;7.60;99.90;;;;;;5072999;28;20032;-71
2024/02/27 04:23:04;;;;;;;85.65;80.50;;;7.50;99.90;;;;;;5074137;28;20562;-71
2024/02/27 04:25:31;;;;;;;56.92;53.42;;;7.60;99.90;;;;;;5073766;28;20042;-71
2024/02/27 04:27:57;;;;;;;101.93;96.05;;;7.60;99.90;;;;;;5073700;28;20064;-71
2024/02/27 04:30:24;;;;;;;90.10;85.18;;;7.60;99.90;;;;;;5087117;28;20047;-71
2024/02/27 04:32:51;;;;;;;75.13;70.85;;;7.60;99.90;;;;;;5074183;28;20039;-71
2024/02/27 04:35:17;;;;;;;89.82;84.03;;;7.60;99.90;;;;;;5076536;28;20039;-71
2024/02/27 04:37:43;;;;;;;92.15;85.47;;;7.60;99.90;;;;;;5073237;28;20048;-71
2024/02/27 04:40:10;;;;;;;56.55;52.70;;;7.60;99.90;;;;;;5087796;28;20478;-71
2024/02/27 04:42:36;;;;;;;88.22;83.15;;;7.60;99.90;;;;;;5093380;28;20040;-71
2024/02/27 04:45:02;;;;;;;86.68;81.78;;;7.60;99.90;;;;;;5093705;28;20032;-71
2024/02/27 04:47:28;;;;;;;76.38;72.10;;;7.60;99.90;;;;;;5091616;28;20032;-71
2024/02/27 04:49:54;;;;;;;85.35;79.95;;;7.60;99.90;;;;;;5093977;28;20110;-71
2024/02/27 04:52:21;;;;;;;67.45;63.50;;;7.50;99.90;;;;;;5074848;28;20036;-71
2024/02/27 04:54:47;;;;;;;95.15;89.20;;;7.50;99.90;;;;;;5073625;28;20032;-71
2024/02/27 04:57:13;;;;;;;87.63;82.32;;;7.50;99.90;;;;;;5073147;28;20367;-71
2024/02/27 04:59:39;;;;;;;86.57;81.43;;;7.50;99.90;;;;;;5073452;28;20036;-71
2024/02/27 05:02:05;;;;;;;107.95;102.03;;;7.50;99.90;;;;;;5065276;28;20036;-71
2024/02/27 05:04:31;;;;;;;86.35;80.55;;;7.50;99.90;;;;;;5056556;28;20384;-71
2024/02/27 05:06:57;;;;;;;99.97;94.28;;;7.50;99.90;;;;;;5079057;28;20028;-71
2024/02/27 05:09:24;;;;;;;75.65;70.70;;;7.50;99.90;;;;;;5083351;28;20335;-71
2024/02/27 05:11:50;;;;;;;75.35;70.90;;;7.60;99.90;;;;;;5072358;28;20036;-70
2024/02/27 05:14:16;;;;;;;84.55;79.38;;;7.60;99.90;;;;;;5073426;28;20467;-71
2024/02/27 05:16:42;;;;;;;79.35;74.55;;;7.50;99.90;;;;;;5075582;28;20032;-71
2024/02/27 05:19:09;;;;;;;87.63;82.10;;;7.60;99.90;;;;;;5078848;28;20020;-71
2024/02/27 05:21:35;;;;;;;83.03;78.03;;;7.60;99.90;;;;;;5076528;28;20046;-71
2024/02/27 05:24:01;;;;;;;93.75;88.22;;;7.60;99.90;;;;;;5073010;28;20029;-71
2024/02/27 05:26:27;;;;;;;91.80;86.07;;;7.60;99.90;;;;;;5072291;28;20041;-71
2024/02/27 05:28:53;;;;;;;100.13;94.25;;;7.60;99.90;;;;;;5072692;28;20055;-71
2024/02/27 05:31:27;;;;;;;79.15;74.38;;;7.60;99.90;;;;;;5072132;28;20040;-71
2024/02/27 05:33:56;;;;;;;77.85;73.70;;;7.60;99.90;;;;;;5072742;28;20035;-71
2024/02/27 05:36:23;;;;;;;83.40;78.57;;;7.60;99.90;;;;;;5068417;28;20043;-71
2024/02/27 05:38:50;;;;;;;86.38;81.35;;;7.50;99.90;;;;;;5069984;28;20059;-71
2024/02/27 05:41:17;;;;;;;114.45;107.75;;;7.60;99.90;;;;;;5071100;28;20406;-71
2024/02/27 05:43:43;;;;;;;88.88;83.82;;;7.60;99.90;;;;;;5069685;28;20033;-71
2024/02/27 05:46:09;;;;;;;94.25;88.68;;;7.60;99.90;;;;;;5070031;28;20041;-71
2024/02/27 05:48:37;;;;;;;97.00;91.13;;;7.70;99.90;;;;;;5072822;28;20032;-71
2024/02/27 05:51:03;;;;;;;73.95;69.43;;;7.70;99.90;;;;;;5079532;28;20044;-71
2024/02/27 05:53:30;;;;;;;80.75;75.80;;;7.60;99.90;;;;;;5092886;28;20032;-71
2024/02/27 05:55:58;;;;;;;73.22;68.35;;;7.60;99.90;;;;;;5084861;28;20048;-71
2024/02/27 05:58:24;;;;;;;77.97;72.75;;;7.60;99.90;;;;;;5071076;28;20043;-71
2024/02/27 06:00:54;;;;;;;78.10;74.00;;;7.60;99.90;;;;;;5071435;28;20513;-70
2024/02/27 06:03:21;;;;;;;81.82;76.97;;;7.50;99.90;;;;;;5072443;28;20033;-71
2024/02/27 06:05:47;;;;;;;86.75;81.07;;;7.50;99.90;;;;;;5072156;28;20033;-71
2024/02/27 06:08:13;;;;;;;74.95;70.72;;;7.50;99.90;;;;;;5072028;28;20047;-71
2024/02/27 06:10:39;;;;;;;78.53;73.95;;;7.50;99.90;;;;;;5071302;28;20025;-71
2024/02/27 06:13:05;;;;;;;96.00;90.45;;;7.50;99.90;;;;;;5061010;28;20045;-70
2024/02/27 06:15:31;;;;;;;65.82;61.88;;;7.50;99.90;;;;;;5071562;28;20044;-70
2024/02/27 06:17:58;;;;;;;94.13;88.28;;;7.40;99.90;;;;;;5071950;28;20032;-71
2024/02/27 06:23:08;;;;;;;93.80;88.10;;;7.40;99.90;;;;;;5079005;28;20035;-71
2024/02/27 06:25:34;;;;;;;65.05;60.80;;;7.40;99.90;;;;;;5071575;28;20035;-70
2024/02/27 06:28:00;;;;;;;80.13;74.93;;;7.40;99.90;;;;;;5070992;28;20029;-71
2024/02/27 06:30:27;;;;;;;115.20;107.97;;;7.40;99.90;;;;;;5071222;28;20036;-71
2024/02/27 06:32:53;;;;;;;86.40;80.88;;;7.40;99.90;;;;;;5071965;28;20028;-71
2024/02/27 06:35:19;;;;;;;63.35;59.22;;;7.30;99.90;;;;;;5073205;28;20048;-71
2024/02/27 06:37:45;;;;;;;61.47;57.72;;;7.20;99.90;;;;;;5072300;28;20031;-71
2024/02/27 06:40:11;;;;;;;70.22;65.30;;;7.20;99.90;;;;;;5071598;28;20044;-71
2024/02/27 06:42:38;;;;;;;78.20;73.43;;;7.10;99.90;;;;;;5072098;28;20029;-71
2024/02/27 06:45:04;;;;;;;67.90;63.30;;;7.10;99.90;;;;;;5074064;28;20041;-70
2024/02/27 06:47:30;;;;;;;62.33;58.40;;;7.10;99.90;;;;;;5103487;28;20390;-70
2024/02/27 06:49:58;;;;;;;52.63;49.03;;;7.10;99.90;;;;;;5096517;28;20031;-71
2024/02/27 06:52:25;;;;;;;67.83;63.47;;;7.10;99.90;;;;;;5096061;28;20035;-70
2024/02/27 06:54:52;;;;;;;78.95;74.15;;;7.00;99.90;;;;;;5095585;28;20042;-71
2024/02/27 06:57:18;;;;;;;57.07;52.93;;;7.00;99.90;;;;;;5096253;28;20374;-71
2024/02/27 06:59:44;;;;;;;57.67;53.87;;;7.00;99.90;;;;;;5096120;28;20039;-71
2024/02/27 07:02:11;;;;;;;55.50;52.10;;;6.90;99.90;;;;;;5076897;28;20043;-71
2024/02/27 07:04:37;;;;;;;61.45;57.35;;;6.90;99.90;;;;;;5075957;28;20493;-71
2024/02/27 07:07:03;;;;;;;63.03;58.75;;;6.90;99.90;;;;;;5075611;28;20036;-70
2024/02/27 07:09:32;;;;;;;51.30;47.73;;;6.80;99.90;;;;;;5074322;28;20033;-70
2024/02/27 07:11:59;;;;;;;67.00;62.83;;;6.80;99.90;;;;;;5075538;28;20044;-70
2024/02/27 07:14:29;;;;;;;127.80;120.18;;;6.80;99.90;;;;;;5075714;28;20032;-70
2024/02/27 07:16:55;;;;;;;95.13;88.80;;;6.80;99.90;;;;;;5069748;28;20033;-70
2024/02/27 07:19:21;;;;;;;114.55;107.50;;;6.80;99.90;;;;;;5073618;28;20043;-70
2024/02/27 07:21:48;;;;;;;96.88;90.50;;;6.90;99.90;;;;;;5074987;28;20040;-71
2024/02/27 07:24:17;;;;;;;100.22;93.85;;;6.90;99.90;;;;;;5058518;28;20025;-70
2024/02/27 07:26:43;;;;;;;91.68;86.13;;;7.00;99.90;;;;;;5054925;28;20488;-71
2024/02/27 07:29:11;;;;;;;127.68;119.70;;;6.90;99.90;;;;;;5064858;28;20047;-70
2024/02/27 07:31:37;;;;;;;124.55;116.50;;;6.90;99.90;;;;;;5074651;28;20033;-71
2024/02/27 07:34:03;;;;;;;76.95;72.57;;;7.00;99.90;;;;;;5075279;28;20027;-70
2024/02/27 07:36:29;;;;;;;91.30;85.70;;;6.90;99.90;;;;;;5068427;28;20489;-71
2024/02/27 07:38:56;;;;;;;132.63;123.18;;;6.90;99.90;;;;;;5055282;28;20048;-70
2024/02/27 07:41:22;;;;;;;96.43;90.60;;;7.00;99.90;;;;;;5067710;28;20398;-70
2024/02/27 07:43:48;;;;;;;101.27;95.13;;;6.90;99.90;;;;;;5062037;28;20021;-71
2024/02/27 07:46:15;;;;;;;130.80;122.80;;;7.00;99.90;;;;;;5065274;28;20037;-71
2024/02/27 07:48:43;;;;;;;74.43;70.20;;;7.00;99.90;;;;;;5072895;28;20040;-71
2024/02/27 07:51:31;;;;;;;189.57;178.20;;;7.00;99.90;;;;;;5064901;28;20395;-71
2024/02/27 07:53:58;;;;;;;66.27;62.20;;;7.10;99.90;;;;;;5058518;28;20025;-71
2024/02/27 07:56:25;;;;;;;125.25;117.53;;;7.20;99.90;;;;;;5064968;28;20654;-71
2024/02/27 07:58:51;;;;;;;101.95;95.63;;;7.30;99.90;;;;;;5070793;28;20036;-71
2024/02/27 08:01:18;;;;;;;60.05;55.45;;;7.50;99.90;;;;;;5064462;28;20380;-71
2024/02/27 08:03:44;;;;;;;55.95;52.22;;;7.70;99.90;;;;;;5053005;28;20040;-71
2024/02/27 08:06:10;;;;;;;77.80;72.85;;;7.80;99.90;;;;;;5054829;28;20376;-71
2024/02/27 08:08:36;;;;;;;111.47;105.68;;;8.00;99.90;;;;;;5053432;28;20029;-71
2024/02/27 08:11:03;;;;;;;85.80;80.25;;;8.10;99.90;;;;;;5069927;28;20024;-71
2024/02/27 08:13:30;;;;;;;131.25;123.60;;;8.10;99.90;;;;;;5072536;28;20044;-71
2024/02/27 08:15:56;;;;;;;102.80;96.75;;;8.20;99.90;;;;;;5056216;28;20033;-71
2024/02/27 08:18:23;;;;;;;84.88;80.28;;;8.30;99.90;;;;;;5058665;28;20039;-70
2024/02/27 08:20:49;;;;;;;101.38;95.00;;;8.20;99.90;;;;;;5063376;28;20032;-71
2024/02/27 08:23:16;;;;;;;87.13;82.15;;;8.40;99.90;;;;;;5064649;28;20067;-70
2024/02/27 08:25:42;;;;;;;94.45;88.45;;;8.50;99.90;;;;;;5071433;28;20028;-68
2024/02/27 08:28:08;;;;;;;130.35;122.28;;;8.40;99.90;;;;;;5064829;28;20033;-68
2024/02/27 08:30:35;;;;;;;94.00;88.90;;;8.60;99.90;;;;;;5060557;28;20033;-68
2024/02/27 08:33:01;;;;;;;142.77;135.18;;;8.80;99.90;;;;;;5054281;28;20055;-67
2024/02/27 08:35:27;;;;;;;118.60;111.90;;;8.80;99.90;;;;;;5058184;28;20033;-67
2024/02/27 08:37:53;;;;;;;108.40;102.53;;;8.80;99.90;;;;;;5072482;28;20039;-68
2024/02/27 08:40:19;;;;;;;138.95;131.15;;;9.00;99.90;;;;;;5068950;28;20049;-68
2024/02/27 08:42:45;;;;;;;111.13;104.75;;;9.10;99.90;;;;;;5073645;28;20399;-68
2024/02/27 08:45:11;;;;;;;110.75;104.15;;;9.10;99.90;;;;;;5073172;28;20040;-69
2024/02/27 08:47:37;;;;;;;156.57;147.70;;;8.90;99.90;;;;;;5083298;28;20035;-68
2024/02/27 08:50:04;;;;;;;171.60;161.57;;;8.70;99.90;;;;;;5085285;28;20036;-71
2024/02/27 08:52:30;;;;;;;138.60;130.60;;;8.80;99.90;;;;;;5076942;28;20035;-69
2024/02/27 08:54:56;;;;;;;120.65;113.68;;;8.90;99.90;;;;;;5073464;28;20052;-70
2024/02/27 08:57:23;;;;;;;177.52;167.73;;;9.00;99.90;;;;;;5082936;28;20042;-72
2024/02/27 08:59:49;;;;;;;129.40;122.00;;;9.10;99.90;;;;;;5080482;28;20028;-72
2024/02/27 09:02:15;;;;;;;162.43;152.88;;;8.90;99.90;;;;;;5079044;28;20052;-71
2024/02/27 09:04:41;;;;;;;280.90;259.35;;;9.10;99.90;;;;;;5086779;28;20021;-72
2024/02/27 09:07:09;;;;;;;877.65;811.88;;;9.10;99.90;;;;;;5077821;28;20039;-72
2024/02/27 09:09:35;;;;;;;879.10;811.97;;;9.10;99.90;;;;;;5079461;28;20021;-72
2024/02/27 09:12:01;;;;;;;1002.35;919.30;;;9.10;99.90;;;;;;5083086;28;20394;-72
2024/02/27 09:14:27;;;;;;;988.78;907.50;;;9.10;99.90;;;;;;5084107;28;20029;-72
2024/02/27 09:16:53;;;;;;;919.42;850.92;;;9.30;99.90;;;;;;5074575;28;20056;-72
2024/02/27 09:19:20;;;;;;;1078.70;983.90;;;9.40;99.90;;;;;;5072652;28;20035;-72
2024/02/27 09:21:46;;;;;;;915.28;845.28;;;9.30;99.90;;;;;;5076479;28;20043;-72
2024/02/27 09:24:12;;;;;;;979.75;901.45;;;9.30;99.90;;;;;;5068800;28;20028;-71
2024/02/27 09:26:38;;;;;;;1748.85;979.30;;;9.50;99.90;;;;;;5069000;28;20041;-72
2024/02/27 09:29:04;;;;;;;125.72;118.07;;;9.50;99.90;;;;;;5091405;28;20032;-72
2024/02/27 09:31:30;;;;;;;112.80;106.55;;;9.60;99.90;;;;;;5084647;28;20070;-72
2024/02/27 09:33:56;;;;;;;1999.90;999.90;;;9.60;99.90;;;;;;5076354;28;20044;-72
2024/02/27 09:36:23;;;;;;;918.60;847.03;;;9.80;99.90;;;;;;5076698;28;20036;-72
2024/02/27 09:38:49;;;;;;;1999.90;999.90;;;9.90;99.90;;;;;;5076474;28;20402;-72
2024/02/27 09:41:28;;;;;;;1999.90;999.90;;;9.80;99.90;;;;;;5075164;28;20049;-69
2024/02/27 09:43:55;;;;;;;145.73;137.80;;;9.90;99.90;;;;;;5080821;28;20029;-70
2024/02/27 09:46:22;;;;;;;840.47;778.85;;;10.00;99.90;;;;;;5073394;28;20035;-69
2024/02/27 09:48:52;;;;;;;857.03;794.78;;;10.00;99.90;;;;;;5076733;28;20043;-69
2024/02/27 09:51:19;;;;;;;1999.90;999.90;;;10.00;99.90;;;;;;5074808;28;20040;-70
2024/02/27 09:53:45;;;;;;;1999.90;999.90;;;10.10;99.90;;;;;;5052954;28;20614;-70
2024/02/27 09:56:15;;;;;;;1999.90;999.90;;;10.10;99.90;;;;;;5072029;28;20036;-69
2024/02/27 09:58:44;;;;;;;1999.90;999.90;;;10.30;99.90;;;;;;5070185;28;20064;-69
2024/02/27 10:01:13;;;;;;;1597.47;839.35;;;10.60;99.90;;;;;;5061643;28;20056;-69
2024/02/27 10:03:43;;;;;;;1999.90;999.90;;;10.70;99.90;;;;;;5065116;28;20401;-72
2024/02/27 10:06:11;;;;;;;997.17;913.97;;;10.60;99.90;;;;;;5079503;28;20486;-71
2024/02/27 10:08:37;;;;;;;913.22;843.75;;;10.20;99.90;;;;;;5079442;28;20036;-72
2024/02/27 10:11:03;;;;;;;1436.15;902.05;;;10.00;99.90;;;;;;5082189;28;20032;-72
2024/02/27 10:13:29;;;;;;;622.10;365.17;;;10.10;99.90;;;;;;5075148;28;20063;-73
2024/02/27 10:15:56;;;;;;;1137.20;838.97;;;10.20;99.90;;;;;;5051273;28;20040;-72
2024/02/27 10:18:22;;;;;;;1693.93;929.33;;;10.30;99.90;;;;;;5077472;28;20035;-72
2024/02/27 10:20:48;;;;;;;753.85;697.08;;;10.40;99.90;;;;;;5068338;28;20039;-73
2024/02/27 10:23:15;;;;;;;1436.03;903.22;;;10.40;99.90;;;;;;5069918;28;20040;-73
2024/02/27 10:25:41;;;;;;;1999.90;999.90;;;10.50;99.90;;;;;;5074641;28;20035;-72
2024/02/27 10:28:07;;;;;;;1999.90;999.90;;;10.50;99.90;;;;;;5084674;28;20032;-72
2024/02/27 10:30:35;;;;;;;1999.90;999.90;;;10.50;99.90;;;;;;5078071;28;20041;-72
2024/02/27 10:33:02;;;;;;;1999.90;999.90;;;10.70;99.90;;;;;;5076501;28;20036;-72
2024/02/27 10:35:28;;;;;;;1999.90;999.90;;;10.90;99.90;;;;;;5083032;28;20028;-74
2024/02/27 10:37:54;;;;;;;1999.90;999.90;;;10.70;99.90;;;;;;5070288;28;20033;-75
2024/02/27 10:40:20;;;;;;;1999.90;999.90;;;10.90;99.90;;;;;;5070963;28;20459;-73
2024/02/27 10:42:47;;;;;;;1999.90;999.90;;;11.10;99.90;;;;;;5071282;28;20470;-74
2024/02/27 10:45:13;;;;;;;1999.90;999.90;;;11.10;99.90;;;;;;5059913;28;20084;-74
2024/02/27 10:47:42;;;;;;;1999.90;999.90;;;11.10;99.90;;;;;;5036445;28;20052;-74
2024/02/27 10:50:08;;;;;;;1999.90;999.90;;;11.10;99.90;;;;;;5054526;28;20028;-75
2024/02/27 10:52:35;;;;;;;1999.90;999.90;;;11.10;99.90;;;;;;5035770;28;20044;-74
2024/02/27 10:55:02;;;;;;;1999.90;999.90;;;11.30;99.90;;;;;;5053272;28;20041;-74
2024/02/27 10:57:28;;;;;;;1999.90;999.90;;;11.40;99.90;;;;;;5069540;28;20460;-74
2024/02/27 10:59:54;;;;;;;1999.90;999.90;;;11.50;99.90;;;;;;5071370;28;20036;-74
2024/02/27 11:02:20;;;;;;;1999.90;999.90;;;11.50;99.90;;;;;;5053070;28;20045;-74
2024/02/27 11:04:47;;;;;;;1999.90;999.90;;;11.40;99.90;;;;;;5071200;28;20060;-75
2024/02/27 11:07:15;;;;;;;1999.90;999.90;;;11.30;99.90;;;;;;5053946;28;20039;-75
2024/02/27 11:09:44;;;;;;;1999.90;999.90;;;11.30;99.90;;;;;;5071335;28;20498;-75
2024/02/27 11:12:17;;;;;;;1999.90;999.90;;;11.60;99.90;;;;;;5053615;28;20056;-75
2024/02/27 11:14:48;;;;;;;1999.90;999.90;;;11.60;99.90;;;;;;5053766;28;20029;-75
2024/02/27 11:17:22;;;;;;;1999.90;999.90;;;11.70;99.90;;;;;;5069689;28;20067;-75
2024/02/27 11:19:52;;;;;;;1999.90;999.90;;;11.70;99.90;;;;;;5037017;28;20040;-75
2024/02/27 11:22:21;;;;;;;1999.90;999.90;;;11.60;99.90;;;;;;5070873;28;20052;-75
2024/02/27 11:24:47;;;;;;;1999.90;999.90;;;11.50;99.90;;;;;;5070097;28;20028;-75
2024/02/27 11:27:21;;;;;;;1999.90;999.90;;;11.40;99.90;;;;;;5069218;28;20510;-75
2024/02/27 11:29:48;;;;;;;1999.90;999.90;;;11.30;99.90;;;;;;5053421;28;20044;-75
2024/02/27 11:32:14;;;;;;;1999.90;999.90;;;11.40;99.90;;;;;;5073456;28;20043;-75
2024/02/27 11:34:40;;;;;;;1999.90;999.90;;;11.40;99.90;;;;;;5056753;28;20039;-76
2024/02/27 11:37:07;;;;;;;1999.90;999.90;;;11.40;99.90;;;;;;5070803;28;20044;-75
2024/02/27 11:39:33;;;;;;;1999.90;999.90;;;11.40;99.90;;;;;;5075070;28;20039;-76
2024/02/27 11:42:01;;;;;;;1999.90;999.90;;;11.50;99.90;;;;;;5062445;28;20425;-75
2024/02/27 11:44:27;;;;;;;1999.90;999.90;;;11.60;99.90;;;;;;5061930;28;20044;-75
2024/02/27 11:46:55;;;;;;;1999.90;999.90;;;11.70;99.90;;;;;;5073971;28;20040;-76
2024/02/27 11:49:38;;;;;;;1999.90;999.90;;;11.80;99.90;;;;;;5073749;28;20039;-75
2024/02/27 11:52:04;;;;;;;1999.90;999.90;;;11.80;99.90;;;;;;5069193;28;20494;-76
2024/02/27 11:54:34;;;;;;;1999.90;999.90;;;11.70;99.90;;;;;;5069083;28;20045;-77
2024/02/27 11:57:00;;;;;;;1999.90;999.90;;;11.90;99.90;;;;;;5069192;28;20426;-76
2024/02/27 11:59:32;;;;;;;1999.90;999.90;;;11.90;99.90;;;;;;5071757;28;20475;-77
2024/02/27 12:02:04;;;;;;;1999.90;999.90;;;11.70;99.90;;;;;;5062699;28;20052;-77
2024/02/27 12:04:30;;;;;;;1999.90;999.90;;;11.80;99.90;;;;;;5070300;28;20045;-77
2024/02/27 12:06:56;;;;;;;1999.90;999.90;;;11.90;99.90;;;;;;5072983;28;20041;-74
2024/02/27 12:09:27;;;;;;;1999.90;999.90;;;12.10;99.90;;;;;;5082235;28;20035;-74
2024/02/27 12:11:57;;;;;;;1999.90;999.90;;;12.20;99.90;;;;;;5078934;28;20470;-74
2024/02/27 12:14:23;;;;;;;1999.90;999.90;;;12.00;99.90;;;;;;5073867;28;20050;-73
2024/02/27 12:16:49;;;;;;;1999.90;999.90;;;11.90;99.90;;;;;;5073203;28;20039;-73
2024/02/27 12:19:15;;;;;;;1999.90;999.90;;;12.00;99.90;;;;;;5073967;28;20487;-74
2024/02/27 12:21:41;;;;;;;1999.90;999.90;;;11.90;99.90;;;;;;5072973;28;20032;-73
2024/02/27 12:24:16;;;;;;;1999.90;999.90;;;11.90;99.90;;;;;;5073974;28;20028;-73
2024/02/27 12:26:46;;;;;;;1999.90;999.90;;;11.80;99.90;;;;;;5077864;28;20028;-74